»·PEaware :: WJA5175 KSNA-KTUS

WJA5175 :: KSNA-KTUS

FLIGHT INFORMATION

Flight Status: Arrived
Operator:
Westjet Airlines
More flights by this operator :: More flights under this callsign
Pilot: Nehseem A. (13724)
Aircraft: BOEING 737-800
(B738)
More flights by this aircraft type
Origin: KSNA John Wayne-Orange Co
United States
Destination: KTUS Tucson Intl
United States
More flights between these airports :: More routes between these airports
Route: PIGGN2 CNERY BLH J50 GBN DINGO5
File this flight plan on PilotEdge
Remarks:
Altitude:
(Current/Filed)
35,000ft
Speed:
(Current/Filed)
447kts
Departed: 10-Jan-18 03:46 PM
Arrived: 10-Jan-18 05:08 PM
Distance/Time
Traveled:
361nm/1:22
Distance/Time
To Go:
Arrived

Flight Plot

Page will automatically refresh every two minutes.

Flight plan parsing failed; only flown route is shown


Map Options




Map Legend


Flown Route
Filed Route
Departure Airport
Arrival Airport
Navaid (VOR, NDB)
Fix

Horizontal Profiles

Position Reports

Time Latitude Longitude Heading Altitude Ground
Speed
10-Jan-18 15:06 33.678363 -117.862691 116 63ft 0kts
10-Jan-18 15:07 33.678363 -117.862691 116 63ft 0kts
10-Jan-18 15:08 33.678363 -117.862691 116 63ft 0kts
10-Jan-18 15:09 33.678363 -117.862691 116 63ft 0kts
10-Jan-18 15:10 33.678363 -117.862691 116 63ft 0kts
10-Jan-18 15:11 33.678363 -117.862691 116 63ft 0kts
10-Jan-18 15:12 33.678363 -117.862691 116 63ft 0kts
10-Jan-18 15:13 33.678363 -117.862691 116 63ft 0kts
10-Jan-18 15:14 33.678363 -117.862691 116 63ft 0kts
10-Jan-18 15:15 33.678363 -117.862691 116 63ft 0kts
10-Jan-18 15:16 33.678363 -117.862691 116 63ft 0kts
10-Jan-18 15:17 33.678363 -117.862691 116 63ft 0kts
10-Jan-18 15:18 33.678363 -117.862691 116 63ft 0kts
10-Jan-18 15:19 33.678363 -117.862691 116 63ft 0kts
10-Jan-18 15:20 33.678363 -117.862691 116 63ft 0kts
10-Jan-18 15:21 33.678363 -117.862691 116 63ft 0kts
10-Jan-18 15:22 33.678363 -117.862691 116 63ft 0kts
10-Jan-18 15:23 33.678363 -117.862691 116 63ft 0kts
10-Jan-18 15:24 33.678363 -117.862691 116 63ft 0kts
10-Jan-18 15:25 33.678363 -117.862691 116 63ft 0kts
10-Jan-18 15:26 33.678363 -117.862691 116 63ft 0kts
10-Jan-18 15:27 33.678363 -117.862691 116 63ft 0kts
10-Jan-18 15:28 33.678363 -117.862691 116 63ft 0kts
10-Jan-18 15:29 33.678363 -117.862691 116 63ft 0kts
10-Jan-18 15:30 33.678363 -117.862691 116 63ft 0kts
10-Jan-18 15:31 33.678363 -117.862691 116 63ft 0kts
10-Jan-18 15:32 33.678363 -117.862691 116 63ft 0kts
10-Jan-18 15:33 33.678363 -117.862691 116 63ft 0kts
10-Jan-18 15:34 33.678363 -117.862691 116 63ft 0kts
10-Jan-18 15:35 33.678363 -117.862691 116 63ft 0kts
10-Jan-18 15:36 33.678363 -117.862691 116 63ft 0kts
10-Jan-18 15:37 33.678363 -117.862691 116 63ft 0kts
10-Jan-18 15:38 33.678363 -117.862691 116 63ft 0kts
10-Jan-18 15:39 33.678363 -117.862691 116 63ft 0kts
10-Jan-18 15:40 33.678523 -117.863098 107 63ft 2kts
10-Jan-18 15:41 33.678469 -117.863731 60 63ft 0kts
10-Jan-18 15:42 33.678469 -117.863731 60 63ft 0kts
10-Jan-18 15:43 33.678469 -117.863731 60 63ft 0kts
10-Jan-18 15:44 33.678470 -117.863729 60 63ft 0kts
10-Jan-18 15:45 33.678471 -117.863728 60 63ft 0kts
10-Jan-18 15:46 33.678471 -117.863726 60 63ft 0kts
10-Jan-18 15:47 33.679421 -117.862987 23 63ft 13kts
10-Jan-18 15:48 33.682959 -117.860500 161 63ft 2kts
10-Jan-18 15:49 33.680668 -117.862296 211 63ft 13kts
10-Jan-18 15:50 33.680592 -117.862921 290 63ft 1kts
10-Jan-18 15:51 33.681326 -117.864727 297 63ft 5kts
10-Jan-18 15:52 33.672360 -117.870963 207 64ft 121kts
10-Jan-18 15:53 33.631750 -117.897358 202 2347ft 186kts
10-Jan-18 15:54 33.571948 -117.887525 165 4824ft 246kts
10-Jan-18 15:55 33.509868 -117.855540 138 6801ft 281kts
10-Jan-18 15:56 33.479115 -117.766655 95 9215ft 303kts
10-Jan-18 15:57 33.487301 -117.667385 52 9647ft 293kts
10-Jan-18 15:58 33.536242 -117.582671 53 11405ft 334kts
10-Jan-18 15:59 33.575439 -117.477464 81 14160ft 376kts
10-Jan-18 16:00 33.542399 -117.351696 107 16661ft 413kts
10-Jan-18 16:01 33.505238 -117.218363 92 19033ft 422kts
10-Jan-18 16:02 33.501651 -117.078659 82 21377ft 426kts
10-Jan-18 16:03 33.498765 -116.934306 83 23082ft 442kts
10-Jan-18 16:04 33.496828 -116.786476 81 24374ft 443kts
10-Jan-18 16:05 33.495178 -116.636967 81 26195ft 454kts
10-Jan-18 16:06 33.493080 -116.488019 80 28722ft 440kts
10-Jan-18 16:07 33.491184 -116.342812 79 30713ft 434kts
10-Jan-18 16:08 33.488887 -116.197747 78 32265ft 436kts
10-Jan-18 16:09 33.488254 -116.052820 70 33722ft 425kts
10-Jan-18 16:10 33.519209 -115.921631 55 34720ft 408kts
10-Jan-18 16:11 33.557625 -115.790200 56 35038ft 430kts
10-Jan-18 16:12 33.597946 -115.650865 57 35035ft 454kts
10-Jan-18 16:13 33.624199 -115.499547 81 35037ft 495kts
10-Jan-18 16:14 33.612032 -115.331954 83 35031ft 504kts
10-Jan-18 16:15 33.607030 -115.164731 81 35031ft 503kts
10-Jan-18 16:16 33.602978 -114.996578 81 35031ft 504kts
10-Jan-18 16:17 33.598060 -114.828158 81 35030ft 507kts
10-Jan-18 16:18 33.587945 -114.658697 87 35030ft 515kts
10-Jan-18 16:19 33.571571 -114.487645 86 35031ft 516kts
10-Jan-18 16:20 33.555834 -114.316501 86 35034ft 517kts
10-Jan-18 16:21 33.540411 -114.144617 86 35037ft 518kts
10-Jan-18 16:22 33.524232 -113.973398 86 35039ft 518kts
10-Jan-18 16:23 33.507764 -113.801483 86 35041ft 520kts
10-Jan-18 16:24 33.491327 -113.628971 86 35043ft 520kts
10-Jan-18 16:25 33.474411 -113.457373 86 35046ft 518kts
10-Jan-18 16:26 33.425632 -113.291599 122 35049ft 555kts
10-Jan-18 16:27 33.320215 -113.154820 130 34008ft 560kts
10-Jan-18 16:28 33.215717 -113.017920 129 32509ft 549kts
10-Jan-18 16:29 33.115888 -112.885027 128 31004ft 525kts
10-Jan-18 16:30 33.019604 -112.757764 128 29137ft 515kts
10-Jan-18 16:31 32.934370 -112.624213 111 26635ft 492kts
10-Jan-18 16:32 32.879708 -112.479147 105 24130ft 471kts
10-Jan-18 16:33 32.826705 -112.339652 107 21747ft 457kts
10-Jan-18 16:34 32.774286 -112.203194 108 19541ft 448kts
10-Jan-18 16:35 32.722580 -112.069933 110 17342ft 435kts
10-Jan-18 16:36 32.673178 -111.942803 111 15143ft 414kts
10-Jan-18 16:37 32.625293 -111.820671 112 13627ft 399kts
10-Jan-18 16:38 32.580376 -111.706820 112 12558ft 369kts
10-Jan-18 16:39 32.533586 -111.602940 125 11985ft 347kts
10-Jan-18 16:40 32.474847 -111.510799 125 12010ft 368kts
10-Jan-18 16:41 32.414836 -111.416440 125 11981ft 342kts
10-Jan-18 16:42 32.354729 -111.330637 130 11014ft 334kts
10-Jan-18 16:43 32.289828 -111.255925 140 10105ft 319kts
10-Jan-18 16:44 32.224952 -111.187662 140 9206ft 305kts
10-Jan-18 16:45 32.162833 -111.121270 140 8300ft 296kts
10-Jan-18 16:46 32.103048 -111.056962 140 8000ft 290kts
10-Jan-18 16:47 32.042605 -110.991967 140 8000ft 294kts
10-Jan-18 16:48 31.982187 -110.926927 140 7995ft 295kts
10-Jan-18 16:49 31.921319 -110.862280 140 7992ft 295kts
10-Jan-18 16:50 31.860360 -110.797131 138 8002ft 296kts
10-Jan-18 16:51 31.864588 -110.711111 43 8005ft 284kts
10-Jan-18 16:52 31.927529 -110.701145 309 7872ft 243kts
10-Jan-18 16:53 31.973828 -110.760290 312 7360ft 253kts
10-Jan-18 16:54 32.021340 -110.819994 306 5859ft 252kts
10-Jan-18 16:55 32.064859 -110.880167 317 4235ft 234kts
10-Jan-18 16:56 32.112640 -110.935208 312 3813ft 227kts
10-Jan-18 16:57 32.153809 -110.990060 310 4943ft 226kts
10-Jan-18 16:58 32.200082 -111.009618 13 6304ft 236kts
10-Jan-18 16:59 32.256663 -110.940202 81 8024ft 253kts
10-Jan-18 17:00 32.223089 -110.864429 131 8063ft 275kts
10-Jan-18 17:01 32.184177 -110.806688 129 7929ft 263kts
10-Jan-18 17:02 32.131826 -110.733382 139 7997ft 242kts
10-Jan-18 17:03 32.091347 -110.687669 139 8046ft 236kts
10-Jan-18 17:04 32.042951 -110.634786 140 7981ft 239kts
10-Jan-18 17:05 31.981762 -110.587583 198 8031ft 218kts
10-Jan-18 17:06 31.948273 -110.628970 241 7463ft 221kts
10-Jan-18 17:07 31.929300 -110.692130 284 7368ft 204kts
10-Jan-18 17:08 31.962385 -110.745750 313 6769ft 203kts
10-Jan-18 17:09 31.998502 -110.792784 307 5743ft 182kts
10-Jan-18 17:10 32.029875 -110.833545 308 4655ft 153kts
10-Jan-18 17:11 32.056975 -110.870302 322 3888ft 146kts
10-Jan-18 17:12 32.085288 -110.903214 313 3198ft 143kts
10-Jan-18 17:13 32.110827 -110.933147 313 2651ft 72kts
10-Jan-18 17:14 32.116709 -110.939679 317 2651ft 10kts
10-Jan-18 17:15 32.119209 -110.941373 311 2651ft 10kts
10-Jan-18 17:16 32.121137 -110.941109 48 2651ft 0kts

Navigation Log

Ident Type
Flight plan parsing failed, navigation log unavailable